Time;durP1;ratioP1;P1;durP2;ratioP2;P2;SDS_P1;SDS_P2;PMS_P1;PMS_P2;Temp;Humidity;BMP_temperature;BMP_pressure;BME280_temperature;BME280_humidity;BME280_pressure;Samples;Min_cycle;Max_cycle;Signal;HPM_P1;HPM_P2
2024/04/12 00:01:13;;;;;;;;;;;;;;;8.56;99.36;98001.58;108815;1271;23249;-88
2024/04/12 00:03:52;;;;;;;;;;;;;;;8.54;98.91;98002.77;108603;1278;124614;-89
2024/04/12 00:06:20;;;;;;;;;;;;;;;8.51;99.02;97997.70;108975;1261;25396;-90
2024/04/12 00:08:47;;;;;;;;;;;;;;;8.50;99.04;97997.63;108768;1268;124656;-89
2024/04/12 00:11:16;;;;;;;;;;;;;;;8.49;99.00;97996.53;108649;1278;22533;-89
2024/04/12 00:13:43;;;;;;;;;;;;;;;8.47;98.85;97995.44;108774;1277;124687;-89
2024/04/12 00:16:10;;;;;;;;;;;;;;;8.46;99.07;97995.69;108778;1278;22503;-89
2024/04/12 00:18:37;;;;;;;;;;;;;;;8.45;99.68;97997.69;108888;1277;22583;-89
2024/04/12 00:21:05;;;;;;;;;;;;;;;8.43;99.77;97991.58;108762;1278;124574;-90
2024/04/12 00:23:32;;;;;;;;;;;;;;;8.41;99.92;97985.39;108853;1273;22520;-89
2024/04/12 00:26:00;;;;;;;;;;;;;;;8.39;99.99;97984.67;108749;1277;124694;-90
2024/04/12 00:28:30;;;;;;;;;;;;;;;8.38;100.00;97983.45;109629;1276;22513;-89
2024/04/12 00:31:00;;;;;;;;;;;;;;;8.34;100.00;97982.89;108841;1275;22496;-89
2024/04/12 00:33:31;;;;;;;;;;;;;;;8.30;100.00;97987.33;108778;1276;124901;-89
2024/04/12 00:36:07;;;;;;;;;;;;;;;8.27;100.00;97990.37;108845;1277;22533;-89
2024/04/12 00:38:35;;;;;;;;;;;;;;;8.24;100.00;97989.09;109131;1277;124821;-89
2024/04/12 00:41:24;;;;;;;;;;;;;;;8.22;100.00;97985.27;108843;1277;23001;-91
2024/04/12 00:43:53;;;;;;;;;;;;;;;8.19;100.00;97985.70;108731;1278;124921;-90
2024/04/12 00:46:23;;;;;;;;;;;;;;;8.18;100.00;97984.39;108921;1278;22504;-89
2024/04/12 00:48:54;;;;;;;;;;;;;;;8.17;100.00;97981.91;108860;1277;22531;-89
2024/04/12 00:51:24;;;;;;;;;;;;;;;8.16;100.00;97979.35;108736;1278;124723;-90
2024/04/12 00:53:56;;;;;;;;;;;;;;;8.16;100.00;97981.06;108780;1278;22714;-89
2024/04/12 00:56:23;;;;;;;;;;;;;;;8.18;100.00;97987.15;108628;1274;124996;-89
2024/04/12 00:58:50;;;;;;;;;;;;;;;8.18;100.00;97988.70;108964;1277;22493;-89
2024/04/12 01:01:16;;;;;;;;;;;;;;;8.18;100.00;97989.22;108786;1272;22638;-91
2024/04/12 01:03:47;;;;;;;;;;;;;;;8.17;99.93;97990.55;108681;1278;125178;-89
2024/04/12 01:06:15;;;;;;;;;;;;;;;8.14;99.86;97994.90;108835;1276;22563;-89
2024/04/12 01:08:44;;;;;;;;;;;;;;;8.13;99.92;97994.96;108778;1272;124758;-89
2024/04/12 01:11:11;;;;;;;;;;;;;;;8.11;99.92;97985.79;108831;1278;22509;-89
2024/04/12 01:13:38;;;;;;;;;;;;;;;8.09;100.00;97985.98;108810;1278;22618;-89
2024/04/12 01:16:07;;;;;;;;;;;;;;;8.08;100.00;97987.73;108786;1278;22515;-90
2024/04/12 01:18:34;;;;;;;;;;;;;;;8.08;100.00;97991.58;108806;1274;25246;-90
2024/04/12 01:21:10;;;;;;;;;;;;;;;8.07;100.00;97993.42;108663;1275;125508;-91
2024/04/12 01:23:42;;;;;;;;;;;;;;;8.05;100.00;97991.34;108920;1266;22527;-91
2024/04/12 01:26:09;;;;;;;;;;;;;;;8.04;100.00;97988.64;108784;1276;124905;-89
2024/04/12 01:28:36;;;;;;;;;;;;;;;8.04;100.00;97991.06;108865;1274;22506;-91
2024/04/12 01:31:03;;;;;;;;;;;;;;;8.04;100.00;97991.02;108835;1277;22480;-91
2024/04/12 01:33:31;;;;;;;;;;;;;;;8.05;100.00;97990.09;108912;1277;125021;-90
2024/04/12 01:36:05;;;;;;;;;;;;;;;8.05;100.00;97993.92;108825;1277;22549;-89
2024/04/12 01:38:36;;;;;;;;;;;;;;;8.04;100.00;97998.80;108696;1274;124797;-90
2024/04/12 01:41:05;;;;;;;;;;;;;;;8.02;100.00;97997.73;108956;1277;22500;-90
2024/04/12 01:43:38;;;;;;;;;;;;;;;8.02;100.00;97998.80;108712;1278;22493;-90
2024/04/12 01:46:07;;;;;;;;;;;;;;;8.02;100.00;98002.63;108926;1278;22506;-91
2024/04/12 01:48:34;;;;;;;;;;;;;;;8.01;100.00;97999.41;108713;1278;22578;-90
2024/04/12 01:51:03;;;;;;;;;;;;;;;8.01;100.00;97999.63;108566;1278;124742;-90
2024/04/12 01:53:37;;;;;;;;;;;;;;;8.00;100.00;97998.13;108857;1278;22694;-90
2024/04/12 01:56:09;;;;;;;;;;;;;;;8.00;100.00;97998.30;108762;1277;124877;-89
2024/04/12 01:58:39;;;;;;;;;;;;;;;8.00;100.00;97992.79;108844;1272;27561;-90
2024/04/12 02:01:11;;;;;;;;;;;;;;;8.00;100.00;97992.27;109007;1272;23053;-90
2024/04/12 02:03:40;;;;;;;;;;;;;;;7.99;100.00;97995.77;108821;1276;124671;-91
2024/04/12 02:06:06;;;;;;;;;;;;;;;7.97;100.00;97993.33;108762;1278;24300;-90
2024/04/12 02:08:35;;;;;;;;;;;;;;;7.97;100.00;97993.21;108642;1278;124980;-91
2024/04/12 02:11:06;;;;;;;;;;;;;;;7.97;100.00;97987.85;108804;1273;22706;-90
2024/04/12 02:13:39;;;;;;;;;;;;;;;7.97;100.00;97987.35;108807;1278;22506;-90
2024/04/12 02:16:06;;;;;;;;;;;;;;;7.96;100.00;97987.05;108791;1276;22512;-90
2024/04/12 02:18:33;;;;;;;;;;;;;;;7.97;100.00;97989.23;108817;1278;23207;-90
2024/04/12 02:21:05;;;;;;;;;;;;;;;7.96;100.00;97993.06;108710;1278;125231;-90
2024/04/12 02:23:34;;;;;;;;;;;;;;;7.95;100.00;97987.99;109145;1272;22506;-90
2024/04/12 02:26:01;;;;;;;;;;;;;;;7.94;100.00;97986.02;108780;1275;125023;-90
2024/04/12 02:28:28;;;;;;;;;;;;;;;7.95;100.00;97988.89;108700;1278;22572;-90
2024/04/12 02:30:57;;;;;;;;;;;;;;;7.94;100.00;97988.59;108953;1278;26542;-90
2024/04/12 02:33:30;;;;;;;;;;;;;;;7.94;100.00;97991.69;108572;1278;124730;-90
2024/04/12 02:35:59;;;;;;;;;;;;;;;7.94;100.00;97990.83;108803;1278;22591;-90
2024/04/12 02:38:26;;;;;;;;;;;;;;;7.95;100.00;97991.83;108676;1278;124812;-90
2024/04/12 02:40:53;;;;;;;;;;;;;;;7.96;100.00;97983.45;108812;1278;22578;-89
2024/04/12 02:43:24;;;;;;;;;;;;;;;7.97;100.00;97991.33;108773;1279;22600;-90
2024/04/12 02:45:51;;;;;;;;;;;;;;;7.97;100.00;97991.85;108658;1278;124715;-90
2024/04/12 02:48:19;;;;;;;;;;;;;;;7.95;100.00;97992.35;108800;1278;22522;-90
2024/04/12 02:50:53;;;;;;;;;;;;;;;7.93;100.00;97991.96;108723;1276;125196;-90
2024/04/12 02:53:20;;;;;;;;;;;;;;;7.93;100.00;97990.90;108786;1278;22497;-90
2024/04/12 02:56:02;;;;;;;;;;;;;;;7.93;100.00;97990.79;108676;1276;124947;-90
2024/04/12 02:58:38;;;;;;;;;;;;;;;7.91;100.00;97987.43;108667;1278;25228;-90
2024/04/12 03:01:07;;;;;;;;;;;;;;;7.92;100.00;97991.00;108810;1278;22548;-90
2024/04/12 03:03:35;;;;;;;;;;;;;;;7.92;100.00;97989.95;108707;1278;124817;-90
2024/04/12 03:06:02;;;;;;;;;;;;;;;7.93;100.00;97990.39;108891;1279;22551;-90
2024/04/12 03:08:32;;;;;;;;;;;;;;;7.94;100.00;97987.23;108775;1274;124803;-89
2024/04/12 03:11:25;;;;;;;;;;;;;;;7.95;100.00;97995.95;108781;1278;24030;-89
2024/04/12 03:13:52;;;;;;;;;;;;;;;7.96;100.00;97995.70;108554;1279;125035;-90
2024/04/12 03:16:18;;;;;;;;;;;;;;;7.97;100.00;97994.24;108701;1273;22527;-91
2024/04/12 03:18:51;;;;;;;;;;;;;;;7.97;100.00;97994.20;108638;1279;22549;-88
2024/04/12 03:21:20;;;;;;;;;;;;;;;7.97;100.00;97991.61;108693;1279;125237;-89
2024/04/12 03:23:47;;;;;;;;;;;;;;;7.98;100.00;97991.92;109327;1279;22494;-90
2024/04/12 03:26:15;;;;;;;;;;;;;;;7.98;100.00;97993.48;108823;1272;124926;-90
2024/04/12 03:28:47;;;;;;;;;;;;;;;7.98;100.00;97991.74;108908;1278;25104;-90
2024/04/12 03:31:13;;;;;;;;;;;;;;;7.98;100.00;97994.34;108800;1270;22925;-90
2024/04/12 03:33:43;;;;;;;;;;;;;;;7.97;100.00;97996.31;108859;1270;124948;-91
2024/04/12 03:36:26;;;;;;;;;;;;;;;7.95;100.00;97997.45;108820;1273;24169;-90
2024/04/12 03:39:24;;;;;;;;;;;;;;;7.95;100.00;97998.05;108714;1278;124851;-90
2024/04/12 03:41:39;;;;;;;;;;;;;;;7.95;100.00;97994.27;108885;1278;22524;-90
2024/04/12 03:44:08;;;;;;;;;;;;;;;7.94;100.00;97993.92;108706;1278;125267;-90
2024/04/12 03:46:35;;;;;;;;;;;;;;;7.95;100.00;97995.43;108870;1277;22505;-89
2024/04/12 03:49:02;;;;;;;;;;;;;;;7.93;100.00;97997.14;108913;1277;22553;-90
2024/04/12 03:51:29;;;;;;;;;;;;;;;7.91;100.00;97994.73;108799;1273;124807;-90
2024/04/12 03:54:11;;;;;;;;;;;;;;;7.90;100.00;97993.77;108806;1278;22522;-91
2024/04/12 03:56:38;;;;;;;;;;;;;;;7.90;100.00;97998.81;108719;1276;125071;-90
2024/04/12 03:59:04;;;;;;;;;;;;;;;7.91;100.00;98000.77;108831;1270;22543;-90
2024/04/12 04:01:36;;;;;;;;;;;;;;;7.91;100.00;98002.33;108784;1277;22507;-90
2024/04/12 04:04:10;;;;;;;;;;;;;;;7.90;100.00;98002.55;108700;1278;124773;-90
2024/04/12 04:06:36;;;;;;;;;;;;;;;7.90;100.00;98004.29;108903;1273;22539;-90
2024/04/12 04:09:06;;;;;;;;;;;;;;;7.91;100.00;98002.87;108747;1278;124989;-90
2024/04/12 04:11:32;;;;;;;;;;;;;;;7.90;100.00;98005.13;108813;1278;23876;-89
2024/04/12 04:13:59;;;;;;;;;;;;;;;7.90;100.00;98006.25;108683;1278;125903;-89
2024/04/12 04:16:36;;;;;;;;;;;;;;;7.89;100.00;98007.85;108940;1271;25254;-91
2024/04/12 04:19:02;;;;;;;;;;;;;;;7.89;100.00;98007.50;108946;1273;22537;-90
2024/04/12 04:21:33;;;;;;;;;;;;;;;7.90;100.00;98008.13;108629;1273;124941;-90
2024/04/12 04:24:08;;;;;;;;;;;;;;;7.90;100.00;98008.60;108786;1279;23403;-90
2024/04/12 04:26:38;;;;;;;;;;;;;;;7.91;100.00;98009.58;108687;1278;125249;-90
2024/04/12 04:29:11;;;;;;;;;;;;;;;7.92;100.00;98012.61;108810;1273;22681;-90
2024/04/12 04:31:49;;;;;;;;;;;;;;;7.93;100.00;98013.54;108741;1278;27387;-90
2024/04/12 04:34:17;;;;;;;;;;;;;;;7.93;100.00;98008.51;108764;1278;22516;-90
2024/04/12 04:36:44;;;;;;;;;;;;;;;7.95;100.00;98010.64;108862;1272;23507;-89
2024/04/12 04:39:15;;;;;;;;;;;;;;;7.96;100.00;98010.86;108725;1277;124842;-88
2024/04/12 04:41:48;;;;;;;;;;;;;;;7.98;100.00;98009.53;108855;1277;22701;-89
2024/04/12 04:44:15;;;;;;;;;;;;;;;8.00;100.00;98008.02;108833;1277;125635;-89
2024/04/12 04:46:44;;;;;;;;;;;;;;;8.01;100.00;98006.15;108983;1273;22523;-89
2024/04/12 04:49:13;;;;;;;;;;;;;;;8.03;100.00;98006.48;108996;1277;24200;-89
2024/04/12 04:51:40;;;;;;;;;;;;;;;8.05;100.00;98012.17;108882;1267;124762;-89
2024/04/12 04:54:11;;;;;;;;;;;;;;;8.06;100.00;98014.38;108859;1278;22501;-88
2024/04/12 04:56:38;;;;;;;;;;;;;;;8.07;100.00;98014.65;108829;1276;125343;-88
2024/04/12 04:59:06;;;;;;;;;;;;;;;8.08;100.00;98018.20;108923;1277;22538;-88
2024/04/12 05:01:34;;;;;;;;;;;;;;;8.10;100.00;98018.19;109007;1267;22532;-88
2024/04/12 05:04:01;;;;;;;;;;;;;;;8.13;100.00;98024.66;108876;1270;124948;-88
2024/04/12 05:06:27;;;;;;;;;;;;;;;8.15;100.00;98027.80;108819;1275;22534;-89
2024/04/12 05:08:54;;;;;;;;;;;;;;;8.17;100.00;98031.21;108842;1270;124875;-88
2024/04/12 05:11:21;;;;;;;;;;;;;;;8.19;100.00;98031.94;108877;1277;22571;-88
2024/04/12 05:13:49;;;;;;;;;;;;;;;8.22;100.00;98033.05;108753;1277;124981;-89
2024/04/12 05:16:19;;;;;;;;;;;;;;;8.25;100.00;98024.69;108952;1277;22585;-88
2024/04/12 05:18:48;;;;;;;;;;;;;;;8.28;100.00;98026.71;108884;1273;22494;-90
2024/04/12 05:21:14;;;;;;;;;;;;;;;8.30;100.00;98026.92;108938;1278;125040;-88
2024/04/12 05:23:41;;;;;;;;;;;;;;;8.32;100.00;98029.44;108841;1264;22546;-89
2024/04/12 05:26:09;;;;;;;;;;;;;;;8.35;100.00;98028.93;108707;1277;125075;-89
2024/04/12 05:28:35;;;;;;;;;;;;;;;8.37;100.00;98025.94;108844;1277;22577;-89
2024/04/12 05:31:03;;;;;;;;;;;;;;;8.40;100.00;98026.04;108769;1277;24195;-89
2024/04/12 05:33:33;;;;;;;;;;;;;;;8.43;100.00;98027.84;108754;1276;124977;-89
2024/04/12 05:36:01;;;;;;;;;;;;;;;8.48;100.00;98031.48;108817;1278;26422;-90
2024/04/12 05:38:27;;;;;;;;;;;;;;;8.53;100.00;98033.61;108849;1278;124998;-90
2024/04/12 05:40:54;;;;;;;;;;;;;;;8.57;100.00;98031.91;108829;1278;22527;-89
2024/04/12 05:43:24;;;;;;;;;;;;;;;8.62;100.00;98035.78;108740;1278;22561;-90
2024/04/12 05:45:51;;;;;;;;;;;;;;;8.67;100.00;98028.64;108636;1274;124815;-88
2024/04/12 05:48:17;;;;;;;;;;;;;;;8.70;100.00;98027.13;108801;1269;22494;-90
2024/04/12 05:50:48;;;;;;;;;;;;;;;8.75;100.00;98028.30;108676;1273;124961;-89
2024/04/12 05:53:15;;;;;;;;;;;;;;;8.79;100.00;98028.64;108863;1278;22496;-89
2024/04/12 05:55:44;;;;;;;;;;;;;;;8.83;100.00;98022.81;108938;1270;22547;-89
2024/04/12 05:58:11;;;;;;;;;;;;;;;8.88;100.00;98025.66;108648;1274;124973;-90
2024/04/12 06:00:41;;;;;;;;;;;;;;;8.92;100.00;98024.03;108680;1274;22543;-90
2024/04/12 06:03:08;;;;;;;;;;;;;;;8.98;100.00;98027.55;108827;1278;125078;-90
2024/04/12 06:05:34;;;;;;;;;;;;;;;9.02;100.00;98029.78;108799;1278;25639;-89
2024/04/12 06:08:01;;;;;;;;;;;;;;;9.07;100.00;98025.69;108712;1277;125244;-89
2024/04/12 06:10:29;;;;;;;;;;;;;;;9.14;100.00;98023.77;108726;1277;22548;-89
2024/04/12 06:12:57;;;;;;;;;;;;;;;9.19;100.00;98023.11;108805;1273;22507;-89
2024/04/12 06:15:28;;;;;;;;;;;;;;;9.24;100.00;98022.52;108718;1277;125122;-89
2024/04/12 06:17:54;;;;;;;;;;;;;;;9.30;100.00;98022.73;108936;1277;25198;-89
2024/04/12 06:20:30;;;;;;;;;;;;;;;9.36;100.00;98017.30;108665;1270;125329;-89
2024/04/12 06:23:06;;;;;;;;;;;;;;;9.43;100.00;98017.89;108940;1278;22604;-87
2024/04/12 06:25:38;;;;;;;;;;;;;;;9.48;100.00;98015.77;108986;1277;25212;-88
2024/04/12 06:28:11;;;;;;;;;;;;;;;9.53;100.00;98012.20;108740;1277;124811;-87
2024/04/12 06:30:46;;;;;;;;;;;;;;;9.59;100.00;98010.13;108899;1277;22563;-87
2024/04/12 06:33:13;;;;;;;;;;;;;;;9.66;100.00;98009.34;108824;1273;125476;-89
2024/04/12 06:35:44;;;;;;;;;;;;;;;9.75;100.00;98001.63;108949;1278;22553;-89
2024/04/12 06:38:11;;;;;;;;;;;;;;;9.85;100.00;98000.35;108733;1271;125057;-88
2024/04/12 06:40:37;;;;;;;;;;;;;;;9.90;100.00;97999.48;108863;1278;22524;-89
2024/04/12 06:43:07;;;;;;;;;;;;;;;9.98;100.00;97997.14;108894;1277;22760;-88
2024/04/12 06:45:41;;;;;;;;;;;;;;;10.05;100.00;97996.46;108853;1274;125060;-88
2024/04/12 06:48:10;;;;;;;;;;;;;;;10.14;100.00;97988.89;108918;1271;25411;-88
2024/04/12 06:50:36;;;;;;;;;;;;;;;10.22;100.00;97986.95;108887;1271;125229;-88
2024/04/12 06:53:08;;;;;;;;;;;;;;;10.30;100.00;97983.26;108759;1277;22558;-88
2024/04/12 06:55:46;;;;;;;;;;;;;;;10.40;100.00;97982.34;109110;1278;23751;-89
2024/04/12 06:58:12;;;;;;;;;;;;;;;10.51;100.00;97986.91;108799;1278;22536;-88
2024/04/12 07:00:40;;;;;;;;;;;;;;;10.58;100.00;97983.23;108816;1278;22536;-88
2024/04/12 07:03:08;;;;;;;;;;;;;;;10.66;100.00;97982.02;108916;1264;125312;-88
2024/04/12 07:05:34;;;;;;;;;;;;;;;10.74;100.00;97984.01;108771;1278;22531;-87
2024/04/12 07:08:05;;;;;;;;;;;;;;;10.83;100.00;97987.88;108815;1277;125781;-87
2024/04/12 07:10:32;;;;;;;;;;;;;;;10.90;100.00;97990.86;109021;1275;22520;-88
2024/04/12 07:12:58;;;;;;;;;;;;;;;10.99;100.00;97988.07;108953;1278;23338;-88
2024/04/12 07:15:25;;;;;;;;;;;;;;;11.06;99.73;97987.08;108850;1265;125580;-88
2024/04/12 07:17:51;;;;;;;;;;;;;;;11.12;98.77;97993.10;108887;1277;26628;-88
2024/04/12 07:20:27;;;;;;;;;;;;;;;11.20;97.75;97995.61;108792;1270;125858;-88
2024/04/12 07:22:55;;;;;;;;;;;;;;;11.27;97.22;98001.50;108835;1273;22507;-88
2024/04/12 07:25:23;;;;;;;;;;;;;;;11.36;96.20;98007.11;108996;1277;24929;-88
2024/04/12 07:27:53;;;;;;;;;;;;;;;11.44;95.61;98010.55;108817;1278;124910;-89
2024/04/12 07:30:21;;;;;;;;;;;;;;;11.51;95.44;98012.66;108741;1274;22542;-88
2024/04/12 07:32:47;;;;;;;;;;;;;;;11.58;95.83;98012.29;108689;1272;125050;-89
2024/04/12 07:35:24;;;;;;;;;;;;;;;11.65;94.21;98016.48;108940;1278;22519;-89
2024/04/12 07:38:00;;;;;;;;;;;;;;;11.74;92.86;98018.91;108682;1279;125497;-88
2024/04/12 07:40:31;;;;;;;;;;;;;;;11.79;92.10;98025.84;108885;1273;22618;-88
2024/04/12 07:43:08;;;;;;;;;;;;;;;11.84;91.03;98028.03;108799;1273;22530;-89
2024/04/12 07:45:37;;;;;;;;;;;;;;;11.90;91.59;98031.23;108683;1278;125007;-89
2024/04/12 07:50:53;;;;;;;;;;;;;;;12.03;89.01;98029.80;108805;1271;124964;-87
2024/04/12 07:53:23;;;;;;;;;;;;;;;12.09;88.85;98029.02;108857;1277;22497;-88
2024/04/12 07:56:16;;;;;;;;;;;;;;;12.15;88.37;98026.13;108538;1280;125275;-89
2024/04/12 07:58:43;;;;;;;;;;;;;;;12.21;88.27;98026.92;108687;1280;22531;-88
2024/04/12 08:01:10;;;;;;;;;;;;;;;12.26;86.29;98024.58;108552;1280;22517;-89
2024/04/12 08:03:37;;;;;;;;;;;;;;;12.30;86.17;98024.54;108572;1280;125089;-89
2024/04/12 08:06:03;;;;;;;;;;;;;;;12.34;85.61;98024.95;108586;1281;22532;-89
2024/04/12 08:08:30;;;;;;;;;;;;;;;12.39;86.03;98019.62;108523;1280;125256;-89
2024/04/12 08:11:11;;;;;;;;;;;;;;;12.47;85.82;98016.53;108678;1281;22541;-88
2024/04/12 08:13:44;;;;;;;;;;;;;;;12.55;85.45;98019.34;108609;1280;22527;-88
2024/04/12 08:16:14;;;;;;;;;;;;;;;12.60;85.10;98017.95;108583;1273;124831;-89
2024/04/12 08:18:43;;;;;;;;;;;;;;;12.65;84.66;98015.89;108637;1270;23275;-88
2024/04/12 08:21:12;;;;;;;;;;;;;;;12.70;84.04;98015.49;108708;1274;125163;-89
2024/04/12 08:23:43;;;;;;;;;;;;;;;12.74;84.17;98014.64;108655;1280;23272;-89
2024/04/12 08:26:11;;;;;;;;;;;;;;;12.83;85.26;98013.87;108689;1275;125846;-90
2024/04/12 08:28:41;;;;;;;;;;;;;;;12.93;85.61;98011.67;108865;1277;23344;-89
2024/04/12 08:31:10;;;;;;;;;;;;;;;13.03;83.77;98016.17;108974;1277;22487;-89
2024/04/12 08:33:40;;;;;;;;;;;;;;;13.11;83.43;98015.55;109028;1273;125134;-89
2024/04/12 08:36:13;;;;;;;;;;;;;;;13.20;82.94;98017.84;108876;1272;23189;-89
2024/04/12 08:38:54;;;;;;;;;;;;;;;13.28;80.93;98015.99;108843;1272;124901;-89
2024/04/12 08:41:23;;;;;;;;;;;;;;;13.31;79.70;98010.09;108996;1271;22522;-90
2024/04/12 08:43:58;;;;;;;;;;;;;;;13.33;79.63;98009.13;108735;1278;125035;-89
2024/04/12 08:46:33;;;;;;;;;;;;;;;13.38;78.48;98007.64;109019;1276;23162;-89
2024/04/12 08:49:03;;;;;;;;;;;;;;;13.42;78.33;98003.02;108900;1278;22527;-89
2024/04/12 08:51:32;;;;;;;;;;;;;;;13.48;78.45;98006.70;108776;1272;124978;-89
2024/04/12 08:54:05;;;;;;;;;;;;;;;13.55;76.90;98004.64;108811;1278;22524;-90
2024/04/12 08:56:32;;;;;;;;;;;;;;;13.59;76.18;98000.86;108786;1272;124960;-89
2024/04/12 08:59:07;;;;;;;;;;;;;;;13.63;75.67;98006.17;108843;1278;22550;-89
2024/04/12 09:01:35;;;;;;;;;;;;;;;13.67;74.35;98001.59;108853;1271;23287;-89
2024/04/12 09:04:12;;;;;;;;;;;;;;;13.69;73.93;98000.30;108776;1278;124810;-89
2024/04/12 09:06:39;;;;;;;;;;;;;;;13.78;72.96;97998.95;108795;1271;22613;-89
2024/04/12 09:09:13;;;;;;;;;;;;;;;13.90;74.22;97994.81;108702;1276;124301;-88
2024/04/12 09:11:44;;;;;;;;;;;;;;;13.98;73.51;97993.23;108798;1278;22546;-89
2024/04/12 09:14:19;;;;;;;;;;;;;;;14.04;73.14;97994.66;108689;1278;124442;-89
2024/04/12 09:16:48;;;;;;;;;;;;;;;14.11;74.06;97995.65;109010;1274;24844;-88
2024/04/12 09:19:15;;;;;;;;;;;;;;;14.18;73.96;97996.34;108801;1271;22539;-89
2024/04/12 09:21:47;;;;;;;;;;;;;;;14.25;74.08;97995.87;108752;1278;124365;-89
2024/04/12 09:24:21;;;;;;;;;;;;;;;14.32;73.15;97997.38;108915;1278;26437;-89
2024/04/12 09:26:58;;;;;;;;;;;;;;;14.37;73.05;97988.63;108728;1278;124822;-89
2024/04/12 09:29:27;;;;;;;;;;;;;;;14.44;72.66;97983.77;108920;1278;24207;-89
2024/04/12 09:34:46;;;;;;;;;;;;;;;14.56;73.51;97976.66;108865;1278;22585;-89
2024/04/12 09:37:38;;;;;;;;;;;;;;;14.65;73.87;97977.25;108947;1275;25197;-89
2024/04/12 09:40:16;;;;;;;;;;;;;;;14.72;72.28;97975.46;108783;1276;124626;-89
2024/04/12 09:45:27;;;;;;;;;;;;;;;14.76;71.78;97964.36;108770;1277;125567;-89
2024/04/12 10:38:00;;;;;;;;;;;;;;;16.01;66.85;97919.77;108804;1272;124405;-89
2024/04/12 10:40:33;;;;;;;;;;;;;;;16.09;66.01;97917.06;108795;1277;22515;-89
2024/04/12 10:43:00;;;;;;;;;;;;;;;16.17;66.58;97911.52;108834;1277;22613;-89
2024/04/12 10:45:27;;;;;;;;;;;;;;;16.27;66.15;97910.46;108765;1276;124421;-88
2024/04/12 10:47:56;;;;;;;;;;;;;;;16.32;64.95;97904.05;108809;1277;23753;-90
2024/04/12 10:50:23;;;;;;;;;;;;;;;16.32;62.82;97901.83;108906;1271;124348;-88
2024/04/12 10:52:51;;;;;;;;;;;;;;;16.34;63.12;97892.33;108833;1271;22511;-90
2024/04/12 10:55:21;;;;;;;;;;;;;;;16.38;61.05;97899.31;108755;1278;22547;-89
2024/04/12 10:57:50;;;;;;;;;;;;;;;16.37;62.83;97894.50;108801;1277;124558;-89
2024/04/12 11:00:19;;;;;;;;;;;;;;;16.43;62.50;97895.20;108785;1277;22574;-89
2024/04/12 11:02:45;;;;;;;;;;;;;;;16.48;62.04;97887.80;108874;1277;124193;-90
2024/04/12 11:07:46;;;;;;;;;;;;;;;16.53;61.32;97881.80;108825;1275;25374;-89
2024/04/12 11:10:25;;;;;;;;;;;;;;;16.56;59.51;97880.21;109333;1278;23409;-90
2024/04/12 11:12:59;;;;;;;;;;;;;;;16.54;60.29;97880.56;108707;1278;22509;-90
2024/04/12 11:31:52;;;;;;;;;;;;;;;16.88;59.17;97867.82;108790;1277;124523;-92
2024/04/12 11:34:23;;;;;;;;;;;;;;;16.92;59.68;97870.98;108838;1277;22487;-91
2024/04/12 11:36:53;;;;;;;;;;;;;;;16.96;58.97;97870.67;108852;1277;22483;-90
2024/04/12 11:39:25;;;;;;;;;;;;;;;17.01;58.86;97867.32;108742;1277;124620;-90
2024/04/12 11:41:52;;;;;;;;;;;;;;;17.04;59.26;97865.73;108835;1273;23212;-90
2024/04/12 11:44:18;;;;;;;;;;;;;;;17.05;59.25;97862.27;108779;1277;124576;-89
2024/04/12 11:46:45;;;;;;;;;;;;;;;17.09;59.69;97861.27;108802;1273;22547;-90
2024/04/12 11:49:25;;;;;;;;;;;;;;;17.10;58.80;97855.35;108942;1278;22687;-91
2024/04/12 11:51:58;;;;;;;;;;;;;;;17.10;60.15;97853.70;108737;1274;124418;-90
2024/04/12 11:54:28;;;;;;;;;;;;;;;17.21;60.65;97849.78;108673;1278;22510;-90
2024/04/12 11:57:05;;;;;;;;;;;;;;;17.25;60.75;97846.80;108772;1277;124367;-91
2024/04/12 11:59:31;;;;;;;;;;;;;;;17.30;60.26;97844.83;108839;1277;22504;-90
2024/04/12 12:02:01;;;;;;;;;;;;;;;17.34;61.93;97841.34;108901;1271;124386;-90
2024/04/12 12:04:28;;;;;;;;;;;;;;;17.41;60.81;97842.77;108886;1277;22492;-90
2024/04/12 12:06:55;;;;;;;;;;;;;;;17.47;62.29;97840.80;108941;1270;22525;-90
2024/04/12 12:09:21;;;;;;;;;;;;;;;17.53;63.17;97832.20;108765;1277;124365;-91
2024/04/12 12:11:50;;;;;;;;;;;;;;;17.57;62.28;97832.19;108871;1270;22499;-90
2024/04/12 12:14:17;;;;;;;;;;;;;;;17.57;61.15;97832.68;108775;1274;124443;-90
2024/04/12 12:16:44;;;;;;;;;;;;;;;17.58;60.92;97832.81;108861;1274;22675;-90
2024/04/12 12:19:11;;;;;;;;;;;;;;;17.60;61.51;97834.45;108842;1271;22498;-89
2024/04/12 12:21:37;;;;;;;;;;;;;;;17.61;58.43;97832.76;108557;1277;124494;-89
2024/04/12 12:24:04;;;;;;;;;;;;;;;17.53;58.98;97822.90;108843;1270;23208;-89
2024/04/12 12:26:34;;;;;;;;;;;;;;;17.52;59.50;97818.27;108745;1277;125137;-90
2024/04/12 12:29:01;;;;;;;;;;;;;;;17.49;57.61;97813.25;108801;1277;22522;-89
2024/04/12 12:31:27;;;;;;;;;;;;;;;17.44;58.89;97803.77;108945;1274;22525;-90
2024/04/12 12:33:54;;;;;;;;;;;;;;;17.52;62.22;97797.22;108814;1278;124406;-89
2024/04/12 12:36:21;;;;;;;;;;;;;;;17.66;61.74;97796.33;108746;1277;23224;-89
2024/04/12 12:38:48;;;;;;;;;;;;;;;17.72;60.29;97795.08;108723;1272;124582;-90
2024/04/12 12:41:15;;;;;;;;;;;;;;;17.72;60.10;97790.67;108926;1278;22524;-90
2024/04/12 12:43:44;;;;;;;;;;;;;;;17.74;60.40;97785.20;108830;1278;22535;-90
2024/04/12 12:46:13;;;;;;;;;;;;;;;17.77;59.21;97778.38;108815;1278;124012;-90
2024/04/12 12:48:40;;;;;;;;;;;;;;;17.79;60.26;97778.35;108849;1278;22645;-90
2024/04/12 12:51:08;;;;;;;;;;;;;;;17.82;60.33;97778.73;108718;1278;124585;-89
2024/04/12 12:53:36;;;;;;;;;;;;;;;17.91;62.09;97780.20;108798;1278;22534;-90
2024/04/12 12:56:05;;;;;;;;;;;;;;;18.05;61.17;97781.88;108805;1278;124439;-89
2024/04/12 12:58:33;;;;;;;;;;;;;;;18.10;61.14;97787.14;108763;1271;26438;-89
2024/04/12 13:01:00;;;;;;;;;;;;;;;18.09;59.63;97787.75;108712;1277;22619;-91
2024/04/12 13:03:30;;;;;;;;;;;;;;;18.08;59.66;97786.58;108634;1278;124572;-90
2024/04/12 13:05:58;;;;;;;;;;;;;;;18.07;59.09;97788.45;108810;1278;22505;-90
2024/04/12 13:08:26;;;;;;;;;;;;;;;18.03;59.82;97786.45;108643;1276;124429;-89
2024/04/12 13:10:56;;;;;;;;;;;;;;;18.06;60.07;97783.48;108664;1273;22532;-90
2024/04/12 13:13:23;;;;;;;;;;;;;;;18.12;61.74;97786.14;108757;1275;22502;-90
2024/04/12 13:15:55;;;;;;;;;;;;;;;18.17;60.51;97782.67;108660;1276;124417;-90
2024/04/12 13:18:22;;;;;;;;;;;;;;;18.16;59.55;97786.67;108871;1278;22557;-90
2024/04/12 13:20:51;;;;;;;;;;;;;;;18.14;59.35;97789.39;108658;1277;124212;-90
2024/04/12 13:23:18;;;;;;;;;;;;;;;18.17;61.00;97788.38;108795;1274;22467;-89
2024/04/12 13:25:45;;;;;;;;;;;;;;;18.27;60.74;97785.64;108741;1277;23051;-89
2024/04/12 13:28:12;;;;;;;;;;;;;;;18.33;61.13;97776.47;108609;1278;124060;-90
2024/04/12 13:30:40;;;;;;;;;;;;;;;18.40;61.73;97779.05;108818;1275;22497;-90
2024/04/12 13:33:08;;;;;;;;;;;;;;;18.38;61.03;97782.60;108622;1277;124487;-90
2024/04/12 13:35:40;;;;;;;;;;;;;;;18.34;60.64;97779.70;108711;1278;24167;-89
2024/04/12 13:38:12;;;;;;;;;;;;;;;18.25;60.39;97775.89;108585;1273;124343;-90
2024/04/12 13:40:42;;;;;;;;;;;;;;;18.23;60.43;97772.33;108894;1272;23205;-89
2024/04/12 13:43:13;;;;;;;;;;;;;;;18.26;62.72;97768.59;108805;1278;22493;-89
2024/04/12 13:51:15;;;;;;;;;;;;;;;18.11;61.62;97763.92;108769;1277;124313;-89
2024/04/12 13:53:43;;;;;;;;;;;;;;;18.13;61.71;97759.59;108847;1279;22554;-90
2024/04/12 13:58:53;;;;;;;;;;;;;;;18.11;60.07;97747.53;108872;1274;23261;-89
2024/04/12 14:01:22;;;;;;;;;;;;;;;18.14;59.88;97745.67;108872;1277;23192;-90
2024/04/12 14:03:52;;;;;;;;;;;;;;;18.11;59.67;97740.77;108789;1277;124192;-89
2024/04/12 14:06:23;;;;;;;;;;;;;;;18.05;60.19;97739.27;108861;1275;23375;-90
2024/04/12 14:08:53;;;;;;;;;;;;;;;18.01;60.14;97732.91;108710;1278;124204;-90
2024/04/12 14:11:19;;;;;;;;;;;;;;;18.03;60.36;97730.16;108865;1278;22509;-89